sensor_id;sensor_type;location;lat;lon;timestamp;temperature;humidity
63371;DHT22;49504;48.336;14.472;2023-07-31T00:02:34;26.70;57.70
63371;DHT22;49504;48.336;14.472;2023-07-31T00:10:36;26.70;57.20
63371;DHT22;49504;48.336;14.472;2023-07-31T00:13:58;26.70;57.70
63371;DHT22;49504;48.336;14.472;2023-07-31T00:17:19;26.70;57.70
63371;DHT22;49504;48.336;14.472;2023-07-31T00:20:40;26.70;57.60
63371;DHT22;49504;48.336;14.472;2023-07-31T00:24:01;26.70;57.70
63371;DHT22;49504;48.336;14.472;2023-07-31T00:27:24;26.70;57.60
63371;DHT22;49504;48.336;14.472;2023-07-31T00:30:45;26.70;57.60
63371;DHT22;49504;48.336;14.472;2023-07-31T00:34:06;26.70;57.70
63371;DHT22;49504;48.336;14.472;2023-07-31T00:37:29;26.60;57.60
63371;DHT22;49504;48.336;14.472;2023-07-31T00:40:51;26.70;57.60
63371;DHT22;49504;48.336;14.472;2023-07-31T00:44:13;26.70;57.70
63371;DHT22;49504;48.336;14.472;2023-07-31T00:47:34;26.70;57.60
63371;DHT22;49504;48.336;14.472;2023-07-31T00:50:56;26.70;58.30
63371;DHT22;49504;48.336;14.472;2023-07-31T00:54:17;26.70;57.70
63371;DHT22;49504;48.336;14.472;2023-07-31T00:57:41;26.70;57.60
63371;DHT22;49504;48.336;14.472;2023-07-31T01:01:33;26.60;57.00
63371;DHT22;49504;48.336;14.472;2023-07-31T01:04:55;26.70;57.60
63371;DHT22;49504;48.336;14.472;2023-07-31T01:08:23;26.70;57.60
63371;DHT22;49504;48.336;14.472;2023-07-31T01:15:31;26.70;57.00
63371;DHT22;49504;48.336;14.472;2023-07-31T01:21:22;26.60;57.00
63371;DHT22;49504;48.336;14.472;2023-07-31T01:24:56;26.70;57.50
63371;DHT22;49504;48.336;14.472;2023-07-31T01:28:55;26.60;56.80
63371;DHT22;49504;48.336;14.472;2023-07-31T01:32:19;26.60;57.40
63371;DHT22;49504;48.336;14.472;2023-07-31T01:35:44;26.60;57.40
63371;DHT22;49504;48.336;14.472;2023-07-31T01:39:06;26.60;57.30
63371;DHT22;49504;48.336;14.472;2023-07-31T01:42:27;26.60;57.30
63371;DHT22;49504;48.336;14.472;2023-07-31T01:45:50;26.60;57.30
63371;DHT22;49504;48.336;14.472;2023-07-31T01:49:12;26.60;57.30
63371;DHT22;49504;48.336;14.472;2023-07-31T01:52:33;26.60;57.30
63371;DHT22;49504;48.336;14.472;2023-07-31T01:55:54;26.60;57.20
63371;DHT22;49504;48.336;14.472;2023-07-31T01:59:15;26.60;57.20
63371;DHT22;49504;48.336;14.472;2023-07-31T02:02:38;26.60;57.20
63371;DHT22;49504;48.336;14.472;2023-07-31T02:05:59;26.60;57.20
63371;DHT22;49504;48.336;14.472;2023-07-31T02:09:20;26.60;57.10
63371;DHT22;49504;48.336;14.472;2023-07-31T02:12:41;26.60;57.00
63371;DHT22;49504;48.336;14.472;2023-07-31T02:16:03;26.60;57.00
63371;DHT22;49504;48.336;14.472;2023-07-31T02:19:26;26.60;56.80
63371;DHT22;49504;48.336;14.472;2023-07-31T02:22:47;26.60;56.70
63371;DHT22;49504;48.336;14.472;2023-07-31T02:26:08;26.60;56.60
63371;DHT22;49504;48.336;14.472;2023-07-31T02:29:29;26.60;56.60
63371;DHT22;49504;48.336;14.472;2023-07-31T02:32:50;26.60;56.60
63371;DHT22;49504;48.336;14.472;2023-07-31T02:36:13;26.60;56.50
63371;DHT22;49504;48.336;14.472;2023-07-31T02:39:34;26.60;56.50
63371;DHT22;49504;48.336;14.472;2023-07-31T02:42:55;26.60;56.50
63371;DHT22;49504;48.336;14.472;2023-07-31T02:46:17;26.60;56.40
63371;DHT22;49504;48.336;14.472;2023-07-31T02:49:38;26.50;56.30
63371;DHT22;49504;48.336;14.472;2023-07-31T02:53:00;26.50;56.20
63371;DHT22;49504;48.336;14.472;2023-07-31T02:56:21;26.60;56.20
63371;DHT22;49504;48.336;14.472;2023-07-31T02:59:43;26.60;56.20
63371;DHT22;49504;48.336;14.472;2023-07-31T03:03:04;26.60;56.10
63371;DHT22;49504;48.336;14.472;2023-07-31T03:06:25;26.60;56.30
63371;DHT22;49504;48.336;14.472;2023-07-31T03:09:47;26.60;56.30
63371;DHT22;49504;48.336;14.472;2023-07-31T03:13:09;26.60;56.30
63371;DHT22;49504;48.336;14.472;2023-07-31T03:16:30;26.60;56.30
63371;DHT22;49504;48.336;14.472;2023-07-31T03:19:51;26.60;56.20
63371;DHT22;49504;48.336;14.472;2023-07-31T03:23:13;26.50;56.10
63371;DHT22;49504;48.336;14.472;2023-07-31T03:26:35;26.60;56.20
63371;DHT22;49504;48.336;14.472;2023-07-31T03:29:56;26.60;56.20
63371;DHT22;49504;48.336;14.472;2023-07-31T03:33:17;26.60;55.90
63371;DHT22;49504;48.336;14.472;2023-07-31T03:36:39;26.60;55.40
63371;DHT22;49504;48.336;14.472;2023-07-31T03:40:01;26.60;55.20
63371;DHT22;49504;48.336;14.472;2023-07-31T03:43:23;26.60;55.10
63371;DHT22;49504;48.336;14.472;2023-07-31T03:48:29;26.50;54.90
63371;DHT22;49504;48.336;14.472;2023-07-31T03:51:51;26.50;55.30
63371;DHT22;49504;48.336;14.472;2023-07-31T03:55:12;26.50;55.10
63371;DHT22;49504;48.336;14.472;2023-07-31T03:58:34;26.50;55.10
63371;DHT22;49504;48.336;14.472;2023-07-31T04:01:55;26.50;54.90
63371;DHT22;49504;48.336;14.472;2023-07-31T04:05:18;26.60;55.00
63371;DHT22;49504;48.336;14.472;2023-07-31T04:08:39;26.50;55.00
63371;DHT22;49504;48.336;14.472;2023-07-31T04:12:00;26.50;55.10
63371;DHT22;49504;48.336;14.472;2023-07-31T04:15:21;26.50;54.90
63371;DHT22;49504;48.336;14.472;2023-07-31T04:18:42;26.50;54.70
63371;DHT22;49504;48.336;14.472;2023-07-31T04:22:05;26.50;54.70
63371;DHT22;49504;48.336;14.472;2023-07-31T04:25:26;26.50;54.70
63371;DHT22;49504;48.336;14.472;2023-07-31T04:28:47;26.50;54.70
63371;DHT22;49504;48.336;14.472;2023-07-31T04:32:08;26.50;54.80
63371;DHT22;49504;48.336;14.472;2023-07-31T04:35:29;26.50;54.60
63371;DHT22;49504;48.336;14.472;2023-07-31T04:38:52;26.50;54.50
63371;DHT22;49504;48.336;14.472;2023-07-31T04:42:13;26.50;54.60
63371;DHT22;49504;48.336;14.472;2023-07-31T04:48:57;26.50;54.00
63371;DHT22;49504;48.336;14.472;2023-07-31T04:52:18;26.50;54.50
63371;DHT22;49504;48.336;14.472;2023-07-31T04:55:39;26.50;54.40
63371;DHT22;49504;48.336;14.472;2023-07-31T04:59:01;26.50;54.40
63371;DHT22;49504;48.336;14.472;2023-07-31T05:02:22;26.50;54.30
63371;DHT22;49504;48.336;14.472;2023-07-31T05:05:44;26.50;54.30
63371;DHT22;49504;48.336;14.472;2023-07-31T05:09:05;26.50;54.40
63371;DHT22;49504;48.336;14.472;2023-07-31T05:12:26;26.50;54.20
63371;DHT22;49504;48.336;14.472;2023-07-31T05:15:59;26.50;53.70
63371;DHT22;49504;48.336;14.472;2023-07-31T05:19:20;26.50;54.30
63371;DHT22;49504;48.336;14.472;2023-07-31T05:22:42;26.50;54.20
63371;DHT22;49504;48.336;14.472;2023-07-31T05:26:04;26.50;54.20
63371;DHT22;49504;48.336;14.472;2023-07-31T05:29:26;26.50;54.10
63371;DHT22;49504;48.336;14.472;2023-07-31T05:32:48;26.50;54.00
63371;DHT22;49504;48.336;14.472;2023-07-31T05:36:09;26.50;54.00
63371;DHT22;49504;48.336;14.472;2023-07-31T05:39:31;26.50;54.00
63371;DHT22;49504;48.336;14.472;2023-07-31T05:42:52;26.50;54.00
63371;DHT22;49504;48.336;14.472;2023-07-31T05:46:13;26.50;54.00
63371;DHT22;49504;48.336;14.472;2023-07-31T05:49:36;26.50;53.90
63371;DHT22;49504;48.336;14.472;2023-07-31T05:52:57;26.50;54.70
63371;DHT22;49504;48.336;14.472;2023-07-31T05:56:18;26.50;54.00
63371;DHT22;49504;48.336;14.472;2023-07-31T05:59:39;26.50;53.80
63371;DHT22;49504;48.336;14.472;2023-07-31T06:03:00;26.50;53.70
63371;DHT22;49504;48.336;14.472;2023-07-31T06:06:23;26.40;52.50
63371;DHT22;49504;48.336;14.472;2023-07-31T06:09:44;26.50;51.90
63371;DHT22;49504;48.336;14.472;2023-07-31T06:13:05;26.40;51.30
63371;DHT22;49504;48.336;14.472;2023-07-31T06:16:26;26.40;50.90
63371;DHT22;49504;48.336;14.472;2023-07-31T06:19:47;26.40;50.80
63371;DHT22;49504;48.336;14.472;2023-07-31T06:23:11;26.40;50.60
63371;DHT22;49504;48.336;14.472;2023-07-31T06:26:32;26.40;50.70
63371;DHT22;49504;48.336;14.472;2023-07-31T06:29:53;26.30;50.40
63371;DHT22;49504;48.336;14.472;2023-07-31T06:35:20;26.30;51.00
63371;DHT22;49504;48.336;14.472;2023-07-31T06:39:25;26.30;50.80
63371;DHT22;49504;48.336;14.472;2023-07-31T06:42:46;26.30;50.40
63371;DHT22;49504;48.336;14.472;2023-07-31T06:46:07;26.20;50.00
63371;DHT22;49504;48.336;14.472;2023-07-31T06:49:28;26.20;49.90
63371;DHT22;49504;48.336;14.472;2023-07-31T06:52:49;26.20;50.00
63371;DHT22;49504;48.336;14.472;2023-07-31T06:56:12;26.20;49.80
63371;DHT22;49504;48.336;14.472;2023-07-31T06:59:33;26.20;49.30
63371;DHT22;49504;48.336;14.472;2023-07-31T07:02:54;26.20;49.80
63371;DHT22;49504;48.336;14.472;2023-07-31T07:07:29;26.10;49.70
63371;DHT22;49504;48.336;14.472;2023-07-31T07:10:50;26.20;49.80
63371;DHT22;49504;48.336;14.472;2023-07-31T07:14:11;26.10;49.30
63371;DHT22;49504;48.336;14.472;2023-07-31T07:17:32;26.10;49.40
63371;DHT22;49504;48.336;14.472;2023-07-31T07:20:54;26.10;49.60
63371;DHT22;49504;48.336;14.472;2023-07-31T07:24:16;26.10;49.60
63371;DHT22;49504;48.336;14.472;2023-07-31T07:27:38;26.10;49.60
63371;DHT22;49504;48.336;14.472;2023-07-31T07:30:59;26.10;49.90
63371;DHT22;49504;48.336;14.472;2023-07-31T07:34:22;26.10;49.90
63371;DHT22;49504;48.336;14.472;2023-07-31T07:37:43;26.10;49.60
63371;DHT22;49504;48.336;14.472;2023-07-31T07:41:05;26.10;49.30
63371;DHT22;49504;48.336;14.472;2023-07-31T07:46:11;26.10;49.60
63371;DHT22;49504;48.336;14.472;2023-07-31T07:51:20;26.10;49.60
63371;DHT22;49504;48.336;14.472;2023-07-31T07:54:41;26.10;49.60
63371;DHT22;49504;48.336;14.472;2023-07-31T07:58:02;26.10;49.70
63371;DHT22;49504;48.336;14.472;2023-07-31T08:01:23;26.20;50.10
63371;DHT22;49504;48.336;14.472;2023-07-31T08:05:31;26.10;50.00
63371;DHT22;49504;48.336;14.472;2023-07-31T08:08:52;26.20;50.70
63371;DHT22;49504;48.336;14.472;2023-07-31T08:12:14;26.20;50.90
63371;DHT22;49504;48.336;14.472;2023-07-31T08:15:35;26.20;51.10
63371;DHT22;49504;48.336;14.472;2023-07-31T08:18:56;26.20;51.20
63371;DHT22;49504;48.336;14.472;2023-07-31T08:22:19;26.20;51.30
63371;DHT22;49504;48.336;14.472;2023-07-31T08:25:41;26.30;51.60
63371;DHT22;49504;48.336;14.472;2023-07-31T08:29:03;26.20;51.80
63371;DHT22;49504;48.336;14.472;2023-07-31T08:32:24;26.30;52.20
63371;DHT22;49504;48.336;14.472;2023-07-31T08:35:46;26.30;52.10
63371;DHT22;49504;48.336;14.472;2023-07-31T08:39:08;26.30;52.10
63371;DHT22;49504;48.336;14.472;2023-07-31T08:42:29;26.30;52.30
63371;DHT22;49504;48.336;14.472;2023-07-31T08:45:50;26.30;52.40
63371;DHT22;49504;48.336;14.472;2023-07-31T08:49:12;26.30;52.60
63371;DHT22;49504;48.336;14.472;2023-07-31T08:52:33;26.30;52.80
63371;DHT22;49504;48.336;14.472;2023-07-31T08:55:56;26.40;53.00
63371;DHT22;49504;48.336;14.472;2023-07-31T08:59:19;26.40;53.20
63371;DHT22;49504;48.336;14.472;2023-07-31T09:02:45;26.40;53.40
63371;DHT22;49504;48.336;14.472;2023-07-31T09:08:02;26.40;52.70
63371;DHT22;49504;48.336;14.472;2023-07-31T09:11:25;26.60;53.70
63371;DHT22;49504;48.336;14.472;2023-07-31T09:14:47;26.50;53.30
63371;DHT22;49504;48.336;14.472;2023-07-31T09:18:09;26.50;53.70
63371;DHT22;49504;48.336;14.472;2023-07-31T09:21:30;26.50;53.70
63371;DHT22;49504;48.336;14.472;2023-07-31T09:25:57;26.50;53.00
63371;DHT22;49504;48.336;14.472;2023-07-31T09:29:20;26.50;53.80
63371;DHT22;49504;48.336;14.472;2023-07-31T09:32:45;26.50;53.80
63371;DHT22;49504;48.336;14.472;2023-07-31T09:36:07;26.50;53.80
63371;DHT22;49504;48.336;14.472;2023-07-31T09:39:29;26.60;54.00
63371;DHT22;49504;48.336;14.472;2023-07-31T09:42:52;26.60;54.10
63371;DHT22;49504;48.336;14.472;2023-07-31T09:46:14;26.60;54.20
63371;DHT22;49504;48.336;14.472;2023-07-31T09:49:35;26.60;54.20
63371;DHT22;49504;48.336;14.472;2023-07-31T09:52:56;26.60;54.10
63371;DHT22;49504;48.336;14.472;2023-07-31T09:56:20;26.60;54.00
63371;DHT22;49504;48.336;14.472;2023-07-31T09:59:44;26.50;53.80
63371;DHT22;49504;48.336;14.472;2023-07-31T10:03:09;26.60;53.90
63371;DHT22;49504;48.336;14.472;2023-07-31T10:06:31;26.60;53.90
63371;DHT22;49504;48.336;14.472;2023-07-31T10:09:54;26.50;53.80
63371;DHT22;49504;48.336;14.472;2023-07-31T10:13:16;26.60;53.80
63371;DHT22;49504;48.336;14.472;2023-07-31T10:16:39;26.60;53.90
63371;DHT22;49504;48.336;14.472;2023-07-31T10:20:02;26.60;53.90
63371;DHT22;49504;48.336;14.472;2023-07-31T10:23:24;26.60;53.80
63371;DHT22;49504;48.336;14.472;2023-07-31T10:26:45;26.60;53.80
63371;DHT22;49504;48.336;14.472;2023-07-31T10:30:10;26.60;53.90
63371;DHT22;49504;48.336;14.472;2023-07-31T10:33:34;26.60;53.90
63371;DHT22;49504;48.336;14.472;2023-07-31T10:37:19;26.60;53.70
63371;DHT22;49504;48.336;14.472;2023-07-31T10:40:44;26.60;53.80
63371;DHT22;49504;48.336;14.472;2023-07-31T10:46:24;26.60;53.20
63371;DHT22;49504;48.336;14.472;2023-07-31T10:49:45;26.60;53.90
63371;DHT22;49504;48.336;14.472;2023-07-31T10:53:22;26.60;54.00
63371;DHT22;49504;48.336;14.472;2023-07-31T10:56:45;26.70;54.00
63371;DHT22;49504;48.336;14.472;2023-07-31T11:00:20;26.70;54.10
63371;DHT22;49504;48.336;14.472;2023-07-31T11:03:46;26.70;54.00
63371;DHT22;49504;48.336;14.472;2023-07-31T11:07:07;26.60;54.10
63371;DHT22;49504;48.336;14.472;2023-07-31T11:10:28;26.70;54.20
63371;DHT22;49504;48.336;14.472;2023-07-31T11:13:51;26.60;54.10
63371;DHT22;49504;48.336;14.472;2023-07-31T11:17:13;26.70;54.20
63371;DHT22;49504;48.336;14.472;2023-07-31T11:22:07;26.70;53.60
63371;DHT22;49504;48.336;14.472;2023-07-31T11:25:29;26.70;54.30
63371;DHT22;49504;48.336;14.472;2023-07-31T11:28:51;26.70;54.30
63371;DHT22;49504;48.336;14.472;2023-07-31T11:32:16;26.70;54.20
63371;DHT22;49504;48.336;14.472;2023-07-31T11:35:42;26.80;54.30
63371;DHT22;49504;48.336;14.472;2023-07-31T11:39:10;26.80;54.40
63371;DHT22;49504;48.336;14.472;2023-07-31T11:42:31;26.80;54.30
63371;DHT22;49504;48.336;14.472;2023-07-31T11:45:54;26.70;54.40
63371;DHT22;49504;48.336;14.472;2023-07-31T11:49:17;26.80;54.50
63371;DHT22;49504;48.336;14.472;2023-07-31T11:52:40;26.80;54.50
63371;DHT22;49504;48.336;14.472;2023-07-31T11:56:05;26.80;54.50
63371;DHT22;49504;48.336;14.472;2023-07-31T11:59:28;26.80;54.40
63371;DHT22;49504;48.336;14.472;2023-07-31T12:02:50;26.80;54.50
63371;DHT22;49504;48.336;14.472;2023-07-31T12:06:11;26.80;54.50
63371;DHT22;49504;48.336;14.472;2023-07-31T12:09:33;26.80;54.80
63371;DHT22;49504;48.336;14.472;2023-07-31T12:13:00;26.80;54.70
63371;DHT22;49504;48.336;14.472;2023-07-31T12:16:26;26.80;54.90
63371;DHT22;49504;48.336;14.472;2023-07-31T12:19:49;26.80;54.80
63371;DHT22;49504;48.336;14.472;2023-07-31T12:23:14;26.80;54.80
63371;DHT22;49504;48.336;14.472;2023-07-31T12:27:18;26.80;54.20
63371;DHT22;49504;48.336;14.472;2023-07-31T12:30:40;26.90;55.10
63371;DHT22;49504;48.336;14.472;2023-07-31T12:34:02;26.90;55.20
63371;DHT22;49504;48.336;14.472;2023-07-31T12:37:23;26.90;55.20
63371;DHT22;49504;48.336;14.472;2023-07-31T12:40:44;26.90;55.20
63371;DHT22;49504;48.336;14.472;2023-07-31T12:44:07;26.90;55.20
63371;DHT22;49504;48.336;14.472;2023-07-31T12:47:29;26.90;55.40
63371;DHT22;49504;48.336;14.472;2023-07-31T12:50:50;26.90;55.30
63371;DHT22;49504;48.336;14.472;2023-07-31T12:54:12;26.90;55.30
63371;DHT22;49504;48.336;14.472;2023-07-31T12:57:33;26.90;55.30
63371;DHT22;49504;48.336;14.472;2023-07-31T13:00:56;27.00;55.40
63371;DHT22;49504;48.336;14.472;2023-07-31T13:04:18;27.00;55.60
63371;DHT22;49504;48.336;14.472;2023-07-31T13:07:39;27.00;55.60
63371;DHT22;49504;48.336;14.472;2023-07-31T13:11:00;27.00;55.60
63371;DHT22;49504;48.336;14.472;2023-07-31T13:14:22;27.00;55.50
63371;DHT22;49504;48.336;14.472;2023-07-31T13:17:45;27.00;55.40
63371;DHT22;49504;48.336;14.472;2023-07-31T13:21:06;27.00;55.40
63371;DHT22;49504;48.336;14.472;2023-07-31T13:24:28;27.00;55.40
63371;DHT22;49504;48.336;14.472;2023-07-31T13:27:50;27.00;55.40
63371;DHT22;49504;48.336;14.472;2023-07-31T13:31:12;27.00;55.60
63371;DHT22;49504;48.336;14.472;2023-07-31T13:34:34;27.10;55.70
63371;DHT22;49504;48.336;14.472;2023-07-31T13:37:56;27.10;55.90
63371;DHT22;49504;48.336;14.472;2023-07-31T13:41:17;27.10;55.90
63371;DHT22;49504;48.336;14.472;2023-07-31T13:46:09;27.10;55.10
63371;DHT22;49504;48.336;14.472;2023-07-31T13:49:30;27.10;56.10
63371;DHT22;49504;48.336;14.472;2023-07-31T13:52:51;27.10;56.70
63371;DHT22;49504;48.336;14.472;2023-07-31T13:56:13;27.10;55.90
63371;DHT22;49504;48.336;14.472;2023-07-31T13:59:34;27.10;55.80
63371;DHT22;49504;48.336;14.472;2023-07-31T14:02:56;27.10;55.80
63371;DHT22;49504;48.336;14.472;2023-07-31T14:12:21;27.10;55.10
63371;DHT22;49504;48.336;14.472;2023-07-31T14:15:43;27.10;56.00
63371;DHT22;49504;48.336;14.472;2023-07-31T14:19:04;27.10;56.10
63371;DHT22;49504;48.336;14.472;2023-07-31T14:22:28;27.10;56.10
63371;DHT22;49504;48.336;14.472;2023-07-31T14:27:44;27.10;55.10
63371;DHT22;49504;48.336;14.472;2023-07-31T14:31:05;27.10;55.90
63371;DHT22;49504;48.336;14.472;2023-07-31T14:34:26;27.10;55.90
63371;DHT22;49504;48.336;14.472;2023-07-31T14:37:47;27.10;55.90
63371;DHT22;49504;48.336;14.472;2023-07-31T14:41:08;27.10;55.80
63371;DHT22;49504;48.336;14.472;2023-07-31T14:44:31;27.10;55.80
63371;DHT22;49504;48.336;14.472;2023-07-31T14:47:53;27.10;55.80
63371;DHT22;49504;48.336;14.472;2023-07-31T14:51:14;27.10;56.00
63371;DHT22;49504;48.336;14.472;2023-07-31T14:54:35;27.10;56.10
63371;DHT22;49504;48.336;14.472;2023-07-31T14:57:56;27.10;56.00
63371;DHT22;49504;48.336;14.472;2023-07-31T15:01:19;27.10;55.90
63371;DHT22;49504;48.336;14.472;2023-07-31T15:04:40;27.10;55.90
63371;DHT22;49504;48.336;14.472;2023-07-31T15:08:02;27.10;55.90
63371;DHT22;49504;48.336;14.472;2023-07-31T15:11:23;27.10;55.80
63371;DHT22;49504;48.336;14.472;2023-07-31T15:17:00;27.10;55.10
63371;DHT22;49504;48.336;14.472;2023-07-31T15:20:21;27.10;55.80
63371;DHT22;49504;48.336;14.472;2023-07-31T15:23:42;27.10;56.00
63371;DHT22;49504;48.336;14.472;2023-07-31T15:27:04;27.10;55.90
63371;DHT22;49504;48.336;14.472;2023-07-31T15:30:25;27.10;56.10
63371;DHT22;49504;48.336;14.472;2023-07-31T15:33:48;27.10;56.10
63371;DHT22;49504;48.336;14.472;2023-07-31T15:37:09;27.10;56.30
63371;DHT22;49504;48.336;14.472;2023-07-31T15:43:29;27.10;55.30
63371;DHT22;49504;48.336;14.472;2023-07-31T15:49:52;27.10;55.30
63371;DHT22;49504;48.336;14.472;2023-07-31T15:53:14;27.10;56.10
63371;DHT22;49504;48.336;14.472;2023-07-31T15:56:35;27.10;56.00
63371;DHT22;49504;48.336;14.472;2023-07-31T15:59:56;27.10;56.00
63371;DHT22;49504;48.336;14.472;2023-07-31T16:03:17;27.10;56.00
63371;DHT22;49504;48.336;14.472;2023-07-31T16:06:40;27.10;56.00
63371;DHT22;49504;48.336;14.472;2023-07-31T16:10:02;27.10;56.00
63371;DHT22;49504;48.336;14.472;2023-07-31T16:13:25;27.10;56.00
63371;DHT22;49504;48.336;14.472;2023-07-31T16:16:48;27.10;56.00
63371;DHT22;49504;48.336;14.472;2023-07-31T16:20:12;27.10;56.00
63371;DHT22;49504;48.336;14.472;2023-07-31T16:23:35;27.10;56.00
63371;DHT22;49504;48.336;14.472;2023-07-31T16:26:57;27.10;56.00
63371;DHT22;49504;48.336;14.472;2023-07-31T16:30:18;27.10;56.00
63371;DHT22;49504;48.336;14.472;2023-07-31T16:33:39;27.10;56.00
63371;DHT22;49504;48.336;14.472;2023-07-31T16:37:00;27.10;56.00
63371;DHT22;49504;48.336;14.472;2023-07-31T16:40:23;27.10;56.00
63371;DHT22;49504;48.336;14.472;2023-07-31T16:43:44;27.10;56.00
63371;DHT22;49504;48.336;14.472;2023-07-31T16:47:05;27.10;56.00
63371;DHT22;49504;48.336;14.472;2023-07-31T16:50:27;27.10;56.00
63371;DHT22;49504;48.336;14.472;2023-07-31T16:53:48;27.10;56.10
63371;DHT22;49504;48.336;14.472;2023-07-31T16:57:10;27.10;56.00
63371;DHT22;49504;48.336;14.472;2023-07-31T17:00:32;27.10;56.10
63371;DHT22;49504;48.336;14.472;2023-07-31T17:03:53;27.10;56.10
63371;DHT22;49504;48.336;14.472;2023-07-31T17:07:14;27.10;56.10
63371;DHT22;49504;48.336;14.472;2023-07-31T17:10:36;27.10;56.00
63371;DHT22;49504;48.336;14.472;2023-07-31T17:13:59;27.10;56.00
63371;DHT22;49504;48.336;14.472;2023-07-31T17:17:20;27.10;56.00
63371;DHT22;49504;48.336;14.472;2023-07-31T17:20:42;27.10;56.00
63371;DHT22;49504;48.336;14.472;2023-07-31T17:24:03;27.10;56.00
63371;DHT22;49504;48.336;14.472;2023-07-31T17:27:25;27.10;56.10
63371;DHT22;49504;48.336;14.472;2023-07-31T17:30:48;27.10;56.10
63371;DHT22;49504;48.336;14.472;2023-07-31T17:36:03;27.10;55.40
63371;DHT22;49504;48.336;14.472;2023-07-31T17:39:24;27.10;56.10
63371;DHT22;49504;48.336;14.472;2023-07-31T17:42:45;27.10;56.10
63371;DHT22;49504;48.336;14.472;2023-07-31T17:46:06;27.00;56.00
63371;DHT22;49504;48.336;14.472;2023-07-31T17:49:27;27.10;56.10
63371;DHT22;49504;48.336;14.472;2023-07-31T17:52:50;27.10;56.10
63371;DHT22;49504;48.336;14.472;2023-07-31T17:58:20;27.00;55.40
63371;DHT22;49504;48.336;14.472;2023-07-31T18:01:41;27.00;56.00
63371;DHT22;49504;48.336;14.472;2023-07-31T18:05:03;27.00;56.00
63371;DHT22;49504;48.336;14.472;2023-07-31T18:08:25;27.10;56.10
63371;DHT22;49504;48.336;14.472;2023-07-31T18:11:46;27.00;56.00
63371;DHT22;49504;48.336;14.472;2023-07-31T18:17:56;27.00;55.50
63371;DHT22;49504;48.336;14.472;2023-07-31T18:23:19;27.00;55.50
63371;DHT22;49504;48.336;14.472;2023-07-31T18:27:22;27.00;55.50
63371;DHT22;49504;48.336;14.472;2023-07-31T18:30:43;27.00;56.20
63371;DHT22;49504;48.336;14.472;2023-07-31T18:34:05;27.00;56.30
63371;DHT22;49504;48.336;14.472;2023-07-31T18:37:26;27.00;56.20
63371;DHT22;49504;48.336;14.472;2023-07-31T18:40:47;27.00;56.20
63371;DHT22;49504;48.336;14.472;2023-07-31T18:44:10;27.00;56.20
63371;DHT22;49504;48.336;14.472;2023-07-31T18:47:31;27.00;56.20
63371;DHT22;49504;48.336;14.472;2023-07-31T18:50:52;27.00;56.20
63371;DHT22;49504;48.336;14.472;2023-07-31T18:54:13;27.00;56.20
63371;DHT22;49504;48.336;14.472;2023-07-31T18:57:34;27.00;56.30
63371;DHT22;49504;48.336;14.472;2023-07-31T19:00:56;27.00;56.20
63371;DHT22;49504;48.336;14.472;2023-07-31T19:04:17;27.00;56.20
63371;DHT22;49504;48.336;14.472;2023-07-31T19:07:39;27.00;56.20
63371;DHT22;49504;48.336;14.472;2023-07-31T19:11:00;27.00;56.20
63371;DHT22;49504;48.336;14.472;2023-07-31T19:14:21;27.00;56.20
63371;DHT22;49504;48.336;14.472;2023-07-31T19:17:44;27.00;56.20
63371;DHT22;49504;48.336;14.472;2023-07-31T19:21:05;26.90;56.10
63371;DHT22;49504;48.336;14.472;2023-07-31T19:24:26;27.00;56.20
63371;DHT22;49504;48.336;14.472;2023-07-31T19:27:47;26.90;56.10
63371;DHT22;49504;48.336;14.472;2023-07-31T19:31:08;27.00;56.20
63371;DHT22;49504;48.336;14.472;2023-07-31T19:34:55;26.90;55.60
63371;DHT22;49504;48.336;14.472;2023-07-31T19:38:16;26.90;56.20
63371;DHT22;49504;48.336;14.472;2023-07-31T19:43:44;26.90;55.60
63371;DHT22;49504;48.336;14.472;2023-07-31T19:47:05;26.90;56.30
63371;DHT22;49504;48.336;14.472;2023-07-31T19:50:26;26.90;56.30
63371;DHT22;49504;48.336;14.472;2023-07-31T19:53:47;26.90;56.40
63371;DHT22;49504;48.336;14.472;2023-07-31T19:58:23;26.90;55.70
63371;DHT22;49504;48.336;14.472;2023-07-31T20:01:44;27.00;56.60
63371;DHT22;49504;48.336;14.472;2023-07-31T20:05:06;27.00;56.80
63371;DHT22;49504;48.336;14.472;2023-07-31T20:08:28;27.00;57.00
63371;DHT22;49504;48.336;14.472;2023-07-31T20:11:49;27.00;57.00
63371;DHT22;49504;48.336;14.472;2023-07-31T20:15:20;27.00;56.70
63371;DHT22;49504;48.336;14.472;2023-07-31T20:18:42;27.00;56.50
63371;DHT22;49504;48.336;14.472;2023-07-31T20:22:03;27.00;56.10
63371;DHT22;49504;48.336;14.472;2023-07-31T20:25:25;27.00;55.90
63371;DHT22;49504;48.336;14.472;2023-07-31T20:28:46;27.00;55.60
63371;DHT22;49504;48.336;14.472;2023-07-31T20:32:08;26.90;55.50
63371;DHT22;49504;48.336;14.472;2023-07-31T20:35:30;26.90;55.50
63371;DHT22;49504;48.336;14.472;2023-07-31T20:38:51;26.90;55.50
63371;DHT22;49504;48.336;14.472;2023-07-31T20:42:12;26.90;55.10
63371;DHT22;49504;48.336;14.472;2023-07-31T20:45:33;26.90;55.00
63371;DHT22;49504;48.336;14.472;2023-07-31T20:48:55;26.90;54.50
63371;DHT22;49504;48.336;14.472;2023-07-31T20:52:16;26.90;54.50
63371;DHT22;49504;48.336;14.472;2023-07-31T20:55:38;26.90;54.20
63371;DHT22;49504;48.336;14.472;2023-07-31T20:58:59;26.90;54.00
63371;DHT22;49504;48.336;14.472;2023-07-31T21:02:20;26.90;53.90
63371;DHT22;49504;48.336;14.472;2023-07-31T21:05:50;26.90;53.70
63371;DHT22;49504;48.336;14.472;2023-07-31T21:09:11;26.80;53.50
63371;DHT22;49504;48.336;14.472;2023-07-31T21:12:32;26.80;53.30
63371;DHT22;49504;48.336;14.472;2023-07-31T21:15:57;26.80;53.20
63371;DHT22;49504;48.336;14.472;2023-07-31T21:19:18;26.80;53.20
63371;DHT22;49504;48.336;14.472;2023-07-31T21:22:40;26.80;53.80
63371;DHT22;49504;48.336;14.472;2023-07-31T21:26:02;26.80;53.10
63371;DHT22;49504;48.336;14.472;2023-07-31T21:29:23;26.80;53.10
63371;DHT22;49504;48.336;14.472;2023-07-31T21:34:30;26.80;52.90
63371;DHT22;49504;48.336;14.472;2023-07-31T21:37:52;26.80;52.80
63371;DHT22;49504;48.336;14.472;2023-07-31T21:41:13;26.80;52.80
63371;DHT22;49504;48.336;14.472;2023-07-31T21:44:35;26.80;52.80
63371;DHT22;49504;48.336;14.472;2023-07-31T21:47:56;26.80;52.80
63371;DHT22;49504;48.336;14.472;2023-07-31T21:51:18;26.80;52.80
63371;DHT22;49504;48.336;14.472;2023-07-31T21:54:39;26.80;52.80
63371;DHT22;49504;48.336;14.472;2023-07-31T21:58:00;26.80;52.60
63371;DHT22;49504;48.336;14.472;2023-07-31T22:01:21;26.80;52.60